Terminal Aerodrome Forecast
Issued by NWS

Current Version | Previous Version | Text Only | Print | Product List | Glossary On
Versions: 1 2 3 4 5 6 7 8 9 10 11 12 13 14 15 16 17 18 19 20 21 22 23
000
FTUS43 KAPX 240908 AAA
TAFTVC
TAF AMD
KTVC 240908Z 2409/2506 02009KT P6SM OVC021
     FM241000 02009KT P6SM BKN025
     FM241300 03009KT P6SM SCT035
     FM241900 03010G16KT P6SM SCT250
     FM250000 01006KT P6SM FEW250
     FM250300 00000KT P6SM SKC=

USA.gov is the U.S. government's official web portal to all federal, state and local government web resources and services.